sensor_id;sensor_type;location;lat;lon;timestamp;pressure;altitude;pressure_sealevel;temperature;humidity
19676;BME280;39539;52.202;9.876;2023-07-08T00:01:21;101361.97;;;16.15;100.00
19676;BME280;39539;52.202;9.876;2023-07-08T00:03:47;101366.78;;;15.95;100.00
19676;BME280;39539;52.202;9.876;2023-07-08T00:06:18;101364.09;;;15.77;100.00
19676;BME280;39539;52.202;9.876;2023-07-08T00:08:44;101364.09;;;15.58;100.00
19676;BME280;39539;52.202;9.876;2023-07-08T00:11:11;101360.97;;;15.43;100.00
19676;BME280;39539;52.202;9.876;2023-07-08T00:13:36;101359.22;;;15.30;100.00
19676;BME280;39539;52.202;9.876;2023-07-08T00:16:03;101354.22;;;15.34;100.00
19676;BME280;39539;52.202;9.876;2023-07-08T00:18:28;101350.53;;;15.35;100.00
19676;BME280;39539;52.202;9.876;2023-07-08T00:20:54;101356.00;;;15.40;100.00
19676;BME280;39539;52.202;9.876;2023-07-08T00:23:19;101362.94;;;15.47;100.00
19676;BME280;39539;52.202;9.876;2023-07-08T00:25:48;101363.56;;;15.49;100.00
19676;BME280;39539;52.202;9.876;2023-07-08T00:28:20;101345.53;;;15.38;100.00
19676;BME280;39539;52.202;9.876;2023-07-08T00:30:46;101359.91;;;15.44;100.00
19676;BME280;39539;52.202;9.876;2023-07-08T00:33:12;101353.66;;;15.32;100.00
19676;BME280;39539;52.202;9.876;2023-07-08T00:35:39;101364.19;;;15.26;100.00
19676;BME280;39539;52.202;9.876;2023-07-08T00:38:21;101362.19;;;14.97;100.00
19676;BME280;39539;52.202;9.876;2023-07-08T00:40:57;101347.44;;;14.88;100.00
19676;BME280;39539;52.202;9.876;2023-07-08T00:43:35;101357.44;;;14.74;100.00
19676;BME280;39539;52.202;9.876;2023-07-08T00:51:35;101357.16;;;14.82;100.00
19676;BME280;39539;52.202;9.876;2023-07-08T00:54:03;101354.84;;;14.86;100.00
19676;BME280;39539;52.202;9.876;2023-07-08T00:56:49;101355.41;;;14.94;100.00
19676;BME280;39539;52.202;9.876;2023-07-08T00:59:22;101354.59;;;14.94;100.00
19676;BME280;39539;52.202;9.876;2023-07-08T01:01:50;101354.22;;;14.90;100.00
19676;BME280;39539;52.202;9.876;2023-07-08T01:04:28;101352.69;;;15.01;100.00
19676;BME280;39539;52.202;9.876;2023-07-08T01:06:57;101346.38;;;15.14;100.00
19676;BME280;39539;52.202;9.876;2023-07-08T01:09:32;101328.59;;;15.01;100.00
19676;BME280;39539;52.202;9.876;2023-07-08T01:12:02;101341.31;;;15.05;100.00
19676;BME280;39539;52.202;9.876;2023-07-08T01:14:31;101342.88;;;15.13;100.00
19676;BME280;39539;52.202;9.876;2023-07-08T01:16:58;101341.16;;;15.44;99.60
19676;BME280;39539;52.202;9.876;2023-07-08T01:19:23;101342.03;;;15.56;99.71
19676;BME280;39539;52.202;9.876;2023-07-08T01:24:24;101329.78;;;15.05;100.00
19676;BME280;39539;52.202;9.876;2023-07-08T01:26:50;101323.78;;;14.85;100.00
19676;BME280;39539;52.202;9.876;2023-07-08T01:29:15;101325.97;;;14.69;100.00
19676;BME280;39539;52.202;9.876;2023-07-08T01:31:41;101332.44;;;14.55;100.00
19676;BME280;39539;52.202;9.876;2023-07-08T01:34:13;101336.16;;;14.54;100.00
19676;BME280;39539;52.202;9.876;2023-07-08T01:36:41;101329.63;;;14.43;100.00
19676;BME280;39539;52.202;9.876;2023-07-08T01:39:17;101332.34;;;14.36;100.00
19676;BME280;39539;52.202;9.876;2023-07-08T01:41:44;101327.19;;;14.35;100.00
19676;BME280;39539;52.202;9.876;2023-07-08T01:46:46;101323.31;;;14.69;100.00
19676;BME280;39539;52.202;9.876;2023-07-08T01:49:12;101324.97;;;14.89;100.00
19676;BME280;39539;52.202;9.876;2023-07-08T01:51:37;101314.53;;;15.05;100.00
19676;BME280;39539;52.202;9.876;2023-07-08T01:54:02;101325.66;;;15.27;100.00
19676;BME280;39539;52.202;9.876;2023-07-08T01:56:28;101332.34;;;15.37;100.00
19676;BME280;39539;52.202;9.876;2023-07-08T01:58:53;101316.88;;;15.20;100.00
19676;BME280;39539;52.202;9.876;2023-07-08T02:01:19;101311.09;;;14.98;100.00
19676;BME280;39539;52.202;9.876;2023-07-08T02:03:44;101308.59;;;14.78;100.00
19676;BME280;39539;52.202;9.876;2023-07-08T02:06:11;101298.06;;;14.58;100.00
19676;BME280;39539;52.202;9.876;2023-07-08T02:08:37;101279.63;;;14.44;100.00
19676;BME280;39539;52.202;9.876;2023-07-08T02:11:02;101298.13;;;14.45;100.00
19676;BME280;39539;52.202;9.876;2023-07-08T02:13:27;101307.53;;;14.54;100.00
19676;BME280;39539;52.202;9.876;2023-07-08T02:15:53;101295.44;;;14.45;100.00
19676;BME280;39539;52.202;9.876;2023-07-08T02:18:18;101297.94;;;14.40;100.00
19676;BME280;39539;52.202;9.876;2023-07-08T02:20:44;101302.13;;;14.29;100.00
19676;BME280;39539;52.202;9.876;2023-07-08T02:23:09;101306.91;;;14.21;100.00
19676;BME280;39539;52.202;9.876;2023-07-08T02:25:35;101291.00;;;14.01;100.00
19676;BME280;39539;52.202;9.876;2023-07-08T02:28:00;101303.59;;;13.87;100.00
19676;BME280;39539;52.202;9.876;2023-07-08T02:30:26;101314.94;;;13.82;100.00
19676;BME280;39539;52.202;9.876;2023-07-08T02:32:52;101301.41;;;13.77;100.00
19676;BME280;39539;52.202;9.876;2023-07-08T02:35:26;101314.53;;;13.85;100.00
19676;BME280;39539;52.202;9.876;2023-07-08T02:37:53;101310.59;;;13.88;100.00
19676;BME280;39539;52.202;9.876;2023-07-08T02:40:19;101309.13;;;13.99;100.00
19676;BME280;39539;52.202;9.876;2023-07-08T02:42:44;101315.84;;;14.40;100.00
19676;BME280;39539;52.202;9.876;2023-07-08T02:45:12;101318.41;;;14.59;100.00
19676;BME280;39539;52.202;9.876;2023-07-08T02:47:38;101322.44;;;14.75;100.00
19676;BME280;39539;52.202;9.876;2023-07-08T02:50:04;101325.97;;;14.69;100.00
19676;BME280;39539;52.202;9.876;2023-07-08T02:52:30;101320.09;;;14.22;100.00
19676;BME280;39539;52.202;9.876;2023-07-08T02:54:55;101306.25;;;13.93;100.00
19676;BME280;39539;52.202;9.876;2023-07-08T02:57:21;101310.50;;;13.63;100.00
19676;BME280;39539;52.202;9.876;2023-07-08T02:59:46;101309.28;;;13.52;100.00
19676;BME280;39539;52.202;9.876;2023-07-08T03:02:11;101305.25;;;13.36;100.00
19676;BME280;39539;52.202;9.876;2023-07-08T03:04:37;101301.97;;;13.34;100.00
19676;BME280;39539;52.202;9.876;2023-07-08T03:07:05;101313.44;;;13.41;100.00
19676;BME280;39539;52.202;9.876;2023-07-08T03:09:31;101299.84;;;13.50;100.00
19676;BME280;39539;52.202;9.876;2023-07-08T03:11:58;101306.19;;;13.62;100.00
19676;BME280;39539;52.202;9.876;2023-07-08T03:14:23;101308.59;;;13.70;100.00
19676;BME280;39539;52.202;9.876;2023-07-08T03:16:49;101301.41;;;13.77;100.00
19676;BME280;39539;52.202;9.876;2023-07-08T03:19:14;101315.94;;;13.88;100.00
19676;BME280;39539;52.202;9.876;2023-07-08T03:21:40;101314.09;;;13.88;100.00
19676;BME280;39539;52.202;9.876;2023-07-08T03:24:12;101324.16;;;13.93;100.00
19676;BME280;39539;52.202;9.876;2023-07-08T03:26:38;101325.63;;;13.82;100.00
19676;BME280;39539;52.202;9.876;2023-07-08T03:29:03;101321.72;;;13.78;100.00
19676;BME280;39539;52.202;9.876;2023-07-08T03:31:29;101322.63;;;13.65;100.00
19676;BME280;39539;52.202;9.876;2023-07-08T03:33:54;101308.06;;;13.55;100.00
19676;BME280;39539;52.202;9.876;2023-07-08T03:36:19;101323.28;;;13.54;100.00
19676;BME280;39539;52.202;9.876;2023-07-08T03:38:52;101308.47;;;13.52;100.00
19676;BME280;39539;52.202;9.876;2023-07-08T03:41:18;101312.97;;;13.58;100.00
19676;BME280;39539;52.202;9.876;2023-07-08T03:43:44;101309.66;;;13.69;100.00
19676;BME280;39539;52.202;9.876;2023-07-08T03:46:11;101332.19;;;13.86;100.00
19676;BME280;39539;52.202;9.876;2023-07-08T03:48:39;101324.75;;;13.95;100.00
19676;BME280;39539;52.202;9.876;2023-07-08T03:51:09;101324.31;;;14.05;100.00
19676;BME280;39539;52.202;9.876;2023-07-08T03:53:35;101325.31;;;14.04;100.00
19676;BME280;39539;52.202;9.876;2023-07-08T03:56:00;101325.97;;;13.92;100.00
19676;BME280;39539;52.202;9.876;2023-07-08T03:58:25;101326.16;;;13.98;100.00
19676;BME280;39539;52.202;9.876;2023-07-08T04:00:51;101333.69;;;14.14;100.00
19676;BME280;39539;52.202;9.876;2023-07-08T04:03:16;101324.63;;;14.22;100.00
19676;BME280;39539;52.202;9.876;2023-07-08T04:05:41;101323.53;;;14.29;100.00
19676;BME280;39539;52.202;9.876;2023-07-08T04:08:07;101337.22;;;14.53;100.00
19676;BME280;39539;52.202;9.876;2023-07-08T04:10:32;101323.63;;;14.79;100.00
19676;BME280;39539;52.202;9.876;2023-07-08T04:12:57;101333.81;;;15.14;100.00
19676;BME280;39539;52.202;9.876;2023-07-08T04:15:23;101331.91;;;15.40;100.00
19676;BME280;39539;52.202;9.876;2023-07-08T04:17:51;101326.25;;;15.66;100.00
19676;BME280;39539;52.202;9.876;2023-07-08T04:20:18;101330.50;;;15.92;100.00
19676;BME280;39539;52.202;9.876;2023-07-08T04:22:44;101337.13;;;16.08;100.00
19676;BME280;39539;52.202;9.876;2023-07-08T04:25:11;101326.97;;;16.10;100.00
19676;BME280;39539;52.202;9.876;2023-07-08T04:27:37;101325.22;;;16.16;100.00
19676;BME280;39539;52.202;9.876;2023-07-08T04:30:03;101328.47;;;16.06;100.00
19676;BME280;39539;52.202;9.876;2023-07-08T04:32:29;101320.13;;;15.96;100.00
19676;BME280;39539;52.202;9.876;2023-07-08T04:34:54;101321.78;;;15.97;100.00
19676;BME280;39539;52.202;9.876;2023-07-08T04:37:20;101318.06;;;15.98;100.00
19676;BME280;39539;52.202;9.876;2023-07-08T04:39:46;101322.47;;;16.23;100.00
19676;BME280;39539;52.202;9.876;2023-07-08T04:42:14;101325.78;;;16.36;100.00
19676;BME280;39539;52.202;9.876;2023-07-08T04:44:41;101324.06;;;16.42;100.00
19676;BME280;39539;52.202;9.876;2023-07-08T04:47:06;101319.03;;;16.46;100.00
19676;BME280;39539;52.202;9.876;2023-07-08T04:49:34;101323.75;;;16.62;100.00
19676;BME280;39539;52.202;9.876;2023-07-08T04:52:00;101320.66;;;16.89;100.00
19676;BME280;39539;52.202;9.876;2023-07-08T04:54:27;101319.00;;;16.76;95.16
19676;BME280;39539;52.202;9.876;2023-07-08T04:56:53;101330.56;;;16.76;93.82
19676;BME280;39539;52.202;9.876;2023-07-08T04:59:21;101314.50;;;16.70;92.78
19676;BME280;39539;52.202;9.876;2023-07-08T05:01:46;101323.63;;;16.69;93.51
19676;BME280;39539;52.202;9.876;2023-07-08T05:04:14;101310.16;;;16.87;94.52
19676;BME280;39539;52.202;9.876;2023-07-08T05:06:40;101328.34;;;17.32;92.41
19676;BME280;39539;52.202;9.876;2023-07-08T05:09:06;101332.03;;;17.55;89.86
19676;BME280;39539;52.202;9.876;2023-07-08T05:11:32;101324.34;;;17.46;85.92
19676;BME280;39539;52.202;9.876;2023-07-08T05:13:58;101331.72;;;17.51;85.60
19676;BME280;39539;52.202;9.876;2023-07-08T05:16:23;101327.88;;;17.47;85.92
19676;BME280;39539;52.202;9.876;2023-07-08T05:18:49;101316.63;;;17.62;86.62
19676;BME280;39539;52.202;9.876;2023-07-08T05:21:15;101323.97;;;17.78;83.52
19676;BME280;39539;52.202;9.876;2023-07-08T05:23:40;101313.78;;;17.80;85.35
19676;BME280;39539;52.202;9.876;2023-07-08T05:26:07;101322.00;;;18.02;81.92
19676;BME280;39539;52.202;9.876;2023-07-08T05:28:33;101321.72;;;18.15;81.41
19676;BME280;39539;52.202;9.876;2023-07-08T05:30:59;101309.97;;;18.22;80.31
19676;BME280;39539;52.202;9.876;2023-07-08T05:33:26;101309.75;;;18.23;81.00
19676;BME280;39539;52.202;9.876;2023-07-08T05:35:52;101304.88;;;18.08;83.53
19676;BME280;39539;52.202;9.876;2023-07-08T05:38:18;101293.31;;;17.79;86.00
19676;BME280;39539;52.202;9.876;2023-07-08T05:40:48;101294.72;;;17.70;87.98
19676;BME280;39539;52.202;9.876;2023-07-08T05:43:15;101291.09;;;17.76;90.14
19676;BME280;39539;52.202;9.876;2023-07-08T05:45:40;101291.66;;;17.90;88.65
19676;BME280;39539;52.202;9.876;2023-07-08T05:48:06;101299.19;;;18.05;88.47
19676;BME280;39539;52.202;9.876;2023-07-08T05:50:31;101292.69;;;18.17;88.87
19676;BME280;39539;52.202;9.876;2023-07-08T05:52:56;101292.06;;;18.27;89.02
19676;BME280;39539;52.202;9.876;2023-07-08T05:55:22;101292.78;;;18.39;88.45
19676;BME280;39539;52.202;9.876;2023-07-08T05:57:47;101285.38;;;18.47;87.04
19676;BME280;39539;52.202;9.876;2023-07-08T06:00:13;101294.38;;;18.69;88.70
19676;BME280;39539;52.202;9.876;2023-07-08T06:02:38;101282.44;;;18.82;87.82
19676;BME280;39539;52.202;9.876;2023-07-08T06:05:04;101285.03;;;18.94;86.38
19676;BME280;39539;52.202;9.876;2023-07-08T06:07:29;101293.38;;;19.09;84.76
19676;BME280;39539;52.202;9.876;2023-07-08T06:09:54;101286.13;;;19.32;82.15
19676;BME280;39539;52.202;9.876;2023-07-08T06:12:22;101293.72;;;19.57;80.53
19676;BME280;39539;52.202;9.876;2023-07-08T06:14:47;101286.19;;;19.81;80.85
19676;BME280;39539;52.202;9.876;2023-07-08T06:17:13;101277.59;;;19.84;79.47
19676;BME280;39539;52.202;9.876;2023-07-08T06:19:38;101273.41;;;20.25;78.99
19676;BME280;39539;52.202;9.876;2023-07-08T06:22:04;101281.41;;;21.22;76.14
19676;BME280;39539;52.202;9.876;2023-07-08T06:24:29;101280.06;;;22.13;70.26
19676;BME280;39539;52.202;9.876;2023-07-08T06:26:54;101262.72;;;23.01;66.91
19676;BME280;39539;52.202;9.876;2023-07-08T06:29:20;101275.50;;;23.70;65.33
19676;BME280;39539;52.202;9.876;2023-07-08T06:31:45;101273.81;;;23.74;64.14
19676;BME280;39539;52.202;9.876;2023-07-08T06:34:10;101270.91;;;24.05;63.48
19676;BME280;39539;52.202;9.876;2023-07-08T06:36:36;101264.34;;;23.72;63.06
19676;BME280;39539;52.202;9.876;2023-07-08T06:39:02;101265.06;;;24.27;61.14
19676;BME280;39539;52.202;9.876;2023-07-08T06:41:28;101265.72;;;25.49;60.02
19676;BME280;39539;52.202;9.876;2023-07-08T06:43:53;101258.91;;;28.70;51.92
19676;BME280;39539;52.202;9.876;2023-07-08T06:46:19;101243.81;;;31.70;45.33
19676;BME280;39539;52.202;9.876;2023-07-08T06:48:44;101223.94;;;34.38;40.92
19676;BME280;39539;52.202;9.876;2023-07-08T06:51:10;101206.53;;;36.17;38.48
19676;BME280;39539;52.202;9.876;2023-07-08T06:53:35;101187.59;;;37.52;35.73
19676;BME280;39539;52.202;9.876;2023-07-08T06:56:00;101164.97;;;37.50;34.71
19676;BME280;39539;52.202;9.876;2023-07-08T06:58:27;101154.41;;;37.29;34.16
19676;BME280;39539;52.202;9.876;2023-07-08T07:00:53;101143.19;;;37.93;34.20
19676;BME280;39539;52.202;9.876;2023-07-08T07:03:19;101129.00;;;39.23;33.36
19676;BME280;39539;52.202;9.876;2023-07-08T07:05:44;101116.06;;;40.21;31.08
19676;BME280;39539;52.202;9.876;2023-07-08T07:08:09;101114.78;;;40.57;30.68
19676;BME280;39539;52.202;9.876;2023-07-08T07:10:35;101106.03;;;39.44;30.91
19676;BME280;39539;52.202;9.876;2023-07-08T07:13:00;101104.50;;;40.22;30.39
19676;BME280;39539;52.202;9.876;2023-07-08T07:15:25;101102.09;;;40.46;31.00
19676;BME280;39539;52.202;9.876;2023-07-08T07:17:51;101089.09;;;41.13;29.57
19676;BME280;39539;52.202;9.876;2023-07-08T07:20:16;101085.34;;;40.49;29.80
19676;BME280;39539;52.202;9.876;2023-07-08T07:22:41;101080.25;;;39.98;30.20
19676;BME280;39539;52.202;9.876;2023-07-08T07:25:07;101083.38;;;39.46;30.48
19676;BME280;39539;52.202;9.876;2023-07-08T07:27:32;101074.28;;;39.95;30.04
19676;BME280;39539;52.202;9.876;2023-07-08T07:29:58;101079.00;;;40.42;30.61
19676;BME280;39539;52.202;9.876;2023-07-08T07:32:26;101079.03;;;39.70;30.83
19676;BME280;39539;52.202;9.876;2023-07-08T07:34:53;101077.38;;;40.66;30.50
19676;BME280;39539;52.202;9.876;2023-07-08T07:37:20;101078.97;;;41.40;30.28
19676;BME280;39539;52.202;9.876;2023-07-08T07:39:46;101069.50;;;41.31;29.43
19676;BME280;39539;52.202;9.876;2023-07-08T07:42:13;101066.56;;;40.75;29.74
19676;BME280;39539;52.202;9.876;2023-07-08T07:44:39;101068.19;;;41.42;29.26
19676;BME280;39539;52.202;9.876;2023-07-08T07:47:06;101059.13;;;40.00;30.08
19676;BME280;39539;52.202;9.876;2023-07-08T07:49:31;101064.53;;;40.79;30.20
19676;BME280;39539;52.202;9.876;2023-07-08T07:51:57;101062.28;;;41.85;28.95
19676;BME280;39539;52.202;9.876;2023-07-08T07:54:22;101058.28;;;40.46;29.96
19676;BME280;39539;52.202;9.876;2023-07-08T07:56:48;101053.44;;;40.72;30.44
19676;BME280;39539;52.202;9.876;2023-07-08T07:59:13;101057.03;;;41.42;29.64
19676;BME280;39539;52.202;9.876;2023-07-08T08:01:38;101063.28;;;41.61;29.16
19676;BME280;39539;52.202;9.876;2023-07-08T08:04:04;101050.63;;;41.49;29.37
19676;BME280;39539;52.202;9.876;2023-07-08T08:06:29;101052.22;;;43.01;28.44
19676;BME280;39539;52.202;9.876;2023-07-08T08:08:55;101050.38;;;41.25;29.37
19676;BME280;39539;52.202;9.876;2023-07-08T08:11:21;101060.56;;;42.40;28.58
19676;BME280;39539;52.202;9.876;2023-07-08T08:13:47;101057.22;;;41.73;29.10
19676;BME280;39539;52.202;9.876;2023-07-08T08:16:13;101058.34;;;42.24;28.56
19676;BME280;39539;52.202;9.876;2023-07-08T08:18:39;101058.78;;;42.19;29.08
19676;BME280;39539;52.202;9.876;2023-07-08T08:21:04;101050.84;;;41.17;30.00
19676;BME280;39539;52.202;9.876;2023-07-08T08:23:29;101075.44;;;41.88;30.54
19676;BME280;39539;52.202;9.876;2023-07-08T08:25:55;101068.25;;;42.32;29.07
19676;BME280;39539;52.202;9.876;2023-07-08T08:28:20;101058.47;;;43.13;28.78
19676;BME280;39539;52.202;9.876;2023-07-08T08:30:49;101064.31;;;42.95;28.03
19676;BME280;39539;52.202;9.876;2023-07-08T08:33:15;101064.31;;;42.64;28.22
19676;BME280;39539;52.202;9.876;2023-07-08T08:35:44;101059.41;;;41.44;29.72
19676;BME280;39539;52.202;9.876;2023-07-08T08:38:10;101070.19;;;41.45;30.70
19676;BME280;39539;52.202;9.876;2023-07-08T08:40:35;101068.16;;;41.49;29.44
19676;BME280;39539;52.202;9.876;2023-07-08T08:43:09;101079.38;;;41.42;31.03
19676;BME280;39539;52.202;9.876;2023-07-08T08:45:48;101080.19;;;41.39;30.67
19676;BME280;39539;52.202;9.876;2023-07-08T08:48:19;101076.38;;;41.71;29.67
19676;BME280;39539;52.202;9.876;2023-07-08T08:50:59;101081.78;;;41.40;30.45
19676;BME280;39539;52.202;9.876;2023-07-08T08:53:26;101080.72;;;41.79;30.36
19676;BME280;39539;52.202;9.876;2023-07-08T08:56:09;101079.19;;;41.71;29.77
19676;BME280;39539;52.202;9.876;2023-07-08T08:58:53;101083.13;;;41.14;30.01
19676;BME280;39539;52.202;9.876;2023-07-08T09:01:21;101086.72;;;41.74;30.40
19676;BME280;39539;52.202;9.876;2023-07-08T09:04:00;101075.63;;;40.93;29.96
19676;BME280;39539;52.202;9.876;2023-07-08T09:06:34;101069.81;;;41.40;30.93
19676;BME280;39539;52.202;9.876;2023-07-08T09:09:13;101067.13;;;39.77;31.54
19676;BME280;39539;52.202;9.876;2023-07-08T09:11:55;101083.72;;;40.55;32.37
19676;BME280;39539;52.202;9.876;2023-07-08T09:14:27;101081.69;;;40.77;30.54
19676;BME280;39539;52.202;9.876;2023-07-08T09:17:11;101083.75;;;41.99;30.66
19676;BME280;39539;52.202;9.876;2023-07-08T09:19:42;101074.53;;;41.46;29.74
19676;BME280;39539;52.202;9.876;2023-07-08T09:22:17;101070.63;;;40.49;31.87
19676;BME280;39539;52.202;9.876;2023-07-08T09:24:58;101069.41;;;41.38;30.44
19676;BME280;39539;52.202;9.876;2023-07-08T09:27:25;101080.72;;;41.76;30.13
19676;BME280;39539;52.202;9.876;2023-07-08T09:29:50;101064.91;;;41.62;30.45
19676;BME280;39539;52.202;9.876;2023-07-08T09:34:51;101060.53;;;41.57;30.13
19676;BME280;39539;52.202;9.876;2023-07-08T09:37:29;101052.53;;;42.08;29.85
19676;BME280;39539;52.202;9.876;2023-07-08T09:39:56;101065.47;;;41.87;30.43
19676;BME280;39539;52.202;9.876;2023-07-08T09:42:27;101062.28;;;42.30;29.54
19676;BME280;39539;52.202;9.876;2023-07-08T09:44:59;101047.22;;;42.55;29.46
19676;BME280;39539;52.202;9.876;2023-07-08T09:47:29;101055.03;;;41.43;30.63
19676;BME280;39539;52.202;9.876;2023-07-08T09:50:00;101061.81;;;41.45;30.94
19676;BME280;39539;52.202;9.876;2023-07-08T09:52:29;101077.94;;;42.21;30.68
19676;BME280;39539;52.202;9.876;2023-07-08T09:54:55;101064.03;;;42.86;30.18
19676;BME280;39539;52.202;9.876;2023-07-08T09:59:48;101055.31;;;42.08;30.94
19676;BME280;39539;52.202;9.876;2023-07-08T10:05:12;101059.59;;;43.46;29.68
19676;BME280;39539;52.202;9.876;2023-07-08T10:07:38;101060.28;;;44.01;28.89
19676;BME280;39539;52.202;9.876;2023-07-08T10:10:08;101047.44;;;43.56;27.96
19676;BME280;39539;52.202;9.876;2023-07-08T10:12:37;101041.81;;;42.71;29.67
19676;BME280;39539;52.202;9.876;2023-07-08T10:15:19;101048.66;;;41.42;29.82
19676;BME280;39539;52.202;9.876;2023-07-08T10:17:47;101040.84;;;40.21;31.35
19676;BME280;39539;52.202;9.876;2023-07-08T10:20:13;101052.22;;;40.73;30.82
19676;BME280;39539;52.202;9.876;2023-07-08T10:26:00;101058.72;;;40.16;31.72
19676;BME280;39539;52.202;9.876;2023-07-08T10:28:44;101063.78;;;40.68;30.48
19676;BME280;39539;52.202;9.876;2023-07-08T10:31:27;101064.63;;;40.68;31.29
19676;BME280;39539;52.202;9.876;2023-07-08T10:34:15;101057.81;;;40.73;30.75
19676;BME280;39539;52.202;9.876;2023-07-08T10:37:04;101067.00;;;40.66;31.49
19676;BME280;39539;52.202;9.876;2023-07-08T10:50:28;101065.91;;;34.09;39.93
19676;BME280;39539;52.202;9.876;2023-07-08T10:53:05;101074.22;;;33.65;38.25
19676;BME280;39539;52.202;9.876;2023-07-08T10:55:48;101077.34;;;33.07;38.70
19676;BME280;39539;52.202;9.876;2023-07-08T10:58:30;101082.38;;;32.65;39.74
19676;BME280;39539;52.202;9.876;2023-07-08T11:04:11;101085.34;;;32.23;41.02
19676;BME280;39539;52.202;9.876;2023-07-08T11:06:59;101092.81;;;32.10;41.00
19676;BME280;39539;52.202;9.876;2023-07-08T11:09:35;101083.16;;;32.04;40.58
19676;BME280;39539;52.202;9.876;2023-07-08T11:17:49;101087.72;;;31.88;40.46
19676;BME280;39539;52.202;9.876;2023-07-08T11:22:49;101071.63;;;31.65;41.80
19676;BME280;39539;52.202;9.876;2023-07-08T11:25:18;101077.91;;;31.99;45.73
19676;BME280;39539;52.202;9.876;2023-07-08T11:27:45;101071.84;;;32.30;41.77
19676;BME280;39539;52.202;9.876;2023-07-08T11:32:37;101052.91;;;32.04;40.24
19676;BME280;39539;52.202;9.876;2023-07-08T11:35:06;101060.72;;;32.14;40.09
19676;BME280;39539;52.202;9.876;2023-07-08T11:37:33;101062.97;;;31.88;40.54
19676;BME280;39539;52.202;9.876;2023-07-08T11:40:18;101055.66;;;32.04;39.45
19676;BME280;39539;52.202;9.876;2023-07-08T11:42:47;101056.34;;;32.01;39.38
19676;BME280;39539;52.202;9.876;2023-07-08T11:45:25;101047.66;;;31.99;39.69
19676;BME280;39539;52.202;9.876;2023-07-08T11:47:52;101045.13;;;32.06;38.91
19676;BME280;39539;52.202;9.876;2023-07-08T11:50:28;101042.38;;;32.06;38.20
19676;BME280;39539;52.202;9.876;2023-07-08T11:52:57;101033.00;;;31.62;39.36
19676;BME280;39539;52.202;9.876;2023-07-08T11:55:35;101033.78;;;31.38;40.13
19676;BME280;39539;52.202;9.876;2023-07-08T11:58:02;101033.22;;;31.44;40.60
19676;BME280;39539;52.202;9.876;2023-07-08T12:00:31;101037.25;;;31.59;37.83
19676;BME280;39539;52.202;9.876;2023-07-08T12:03:16;101031.50;;;31.40;38.01
19676;BME280;39539;52.202;9.876;2023-07-08T12:05:42;101028.09;;;31.55;38.43
19676;BME280;39539;52.202;9.876;2023-07-08T12:08:15;101023.84;;;31.45;37.59
19676;BME280;39539;52.202;9.876;2023-07-08T12:10:49;101024.63;;;31.46;37.62
19676;BME280;39539;52.202;9.876;2023-07-08T12:13:18;101030.50;;;31.57;39.14
19676;BME280;39539;52.202;9.876;2023-07-08T12:15:43;101023.16;;;31.48;38.56
19676;BME280;39539;52.202;9.876;2023-07-08T12:18:14;101022.31;;;31.48;38.21
19676;BME280;39539;52.202;9.876;2023-07-08T12:20:42;101025.81;;;31.57;39.17
19676;BME280;39539;52.202;9.876;2023-07-08T12:23:17;101025.34;;;31.67;37.34
19676;BME280;39539;52.202;9.876;2023-07-08T12:25:44;101012.66;;;31.63;37.52
19676;BME280;39539;52.202;9.876;2023-07-08T12:28:10;101019.63;;;31.85;37.40
19676;BME280;39539;52.202;9.876;2023-07-08T12:30:38;101014.72;;;31.78;36.90
19676;BME280;39539;52.202;9.876;2023-07-08T12:33:09;101008.41;;;31.65;38.35
19676;BME280;39539;52.202;9.876;2023-07-08T12:35:35;101014.81;;;31.69;36.68
19676;BME280;39539;52.202;9.876;2023-07-08T12:38:49;101004.75;;;31.73;36.64
19676;BME280;39539;52.202;9.876;2023-07-08T12:40:50;101012.88;;;31.70;37.19
19676;BME280;39539;52.202;9.876;2023-07-08T12:43:16;101000.38;;;31.72;37.23
19676;BME280;39539;52.202;9.876;2023-07-08T12:45:43;100995.47;;;31.66;37.51
19676;BME280;39539;52.202;9.876;2023-07-08T12:48:09;101004.03;;;31.52;38.46
19676;BME280;39539;52.202;9.876;2023-07-08T12:50:34;100999.44;;;31.44;38.52
19676;BME280;39539;52.202;9.876;2023-07-08T12:52:59;100994.41;;;31.25;37.51
19676;BME280;39539;52.202;9.876;2023-07-08T12:55:29;100993.03;;;31.40;37.65
19676;BME280;39539;52.202;9.876;2023-07-08T12:57:55;100994.31;;;31.33;38.40
19676;BME280;39539;52.202;9.876;2023-07-08T13:00:31;101003.34;;;31.22;38.78
19676;BME280;39539;52.202;9.876;2023-07-08T13:03:18;101006.44;;;31.20;37.93
19676;BME280;39539;52.202;9.876;2023-07-08T13:05:44;101011.16;;;30.99;37.98
19676;BME280;39539;52.202;9.876;2023-07-08T13:08:15;101006.66;;;31.15;37.52
19676;BME280;39539;52.202;9.876;2023-07-08T13:10:41;100994.22;;;30.97;37.38
19676;BME280;39539;52.202;9.876;2023-07-08T13:13:11;100989.31;;;31.02;38.13
19676;BME280;39539;52.202;9.876;2023-07-08T13:15:40;100999.31;;;31.19;37.75
19676;BME280;39539;52.202;9.876;2023-07-08T13:18:15;100994.56;;;31.28;37.38
19676;BME280;39539;52.202;9.876;2023-07-08T13:20:44;100989.75;;;31.25;37.98
19676;BME280;39539;52.202;9.876;2023-07-08T13:23:12;100986.03;;;31.09;37.99
19676;BME280;39539;52.202;9.876;2023-07-08T13:25:38;100984.88;;;31.10;38.21
19676;BME280;39539;52.202;9.876;2023-07-08T13:28:23;100990.38;;;31.10;38.12
19676;BME280;39539;52.202;9.876;2023-07-08T13:31:00;100980.53;;;31.09;38.53
19676;BME280;39539;52.202;9.876;2023-07-08T13:33:33;100978.00;;;31.04;37.23
19676;BME280;39539;52.202;9.876;2023-07-08T13:36:03;100979.28;;;31.06;38.51
19676;BME280;39539;52.202;9.876;2023-07-08T13:38:34;100984.47;;;31.20;37.29